Reklama

Seznam meteostanic a jejich METAR

Vyhledat místa podle abecedy:
A B C D E F G H I J K L M N O P Q R S T U V W X Y Z

Filtrovat:

ID stanice:
a/nebo
Název místa (fulltext):
 
Místo (ID)Naposledy načteno 
Liberec (Liberec) 07.04.2020 23:00 UTC Zobrazit data
Místo: Liberec
Teplota: 6 °C (pocitová: 3.1 °C)
Vítr: 1 m/s z(e) 120°
Počasí:
Dohlednost: 22 km
Zákl. oblačnosti: N/A
Vlhkost: 66%
Luká (Luka) 07.04.2020 23:00 UTC Zobrazit data
Místo: Luká
Teplota: 9 °C (pocitová: 5.6 °C)
Vítr: 2 m/s z(e) 330°
Počasí:
Dohlednost: 35 km
Zákl. oblačnosti: N/A
Vlhkost: 32%
Lysá Hora (Lysa Hora) 07.04.2020 23:00 UTC Zobrazit data
Místo: Lysá Hora
Teplota: 6 °C (pocitová: 1.8 °C)
Vítr: 2 m/s z(e) 260°
Počasí:
Dohlednost: 35 km
Zákl. oblačnosti: N/A
Vlhkost: 24%
L'viv (UKLL) 13.12.2012 15:00 UTC  
La Palma (GCLA) 08.04.2020 00:00 UTC Zobrazit METAR
GCLA 080000Z AUTO 02008KT 9999 BKN023 20/16 Q1022
La Paz (SLLP) 07.04.2020 05:00 UTC Zobrazit METAR
SLLP 070500Z VRB02KT 9999 FEW015 SCT200 04/02 Q1041
Laayoune (GMML) 07.04.2020 13:50 UTC Zobrazit METAR
GMML 071350Z 03017KT CAVOK 28/14 Q1018 NOSIG
Larnaca (LCLK) 07.04.2020 23:00 UTC Zobrazit METAR
LCLK 072300Z 29005KT 9999 BKN048 14/11 Q1014 NOSIG
Leipzig-Halle (EDDP) 07.04.2020 23:50 UTC Zobrazit METAR
EDDP 072350Z 07009KT CAVOK 09/05 Q1030 NOSIG
Libreville (FOOL) 08.04.2020 00:00 UTC Zobrazit METAR
FOOL 080000Z 22006KT 9999 SCT012 29/26 Q1010 NOSIG
Liege (EBLG) 07.04.2020 23:50 UTC Zobrazit METAR
EBLG 072350Z 13006KT CAVOK 14/07 Q1027 NOSIG
Liepaja (EVLA) 07.04.2020 14:50 UTC Zobrazit METAR
EVLA 071450Z AUTO 23008KT 9999 FEW049/// SCT073/// 09/06 Q1025
Lille (LFQQ) 08.04.2020 00:00 UTC Zobrazit METAR
LFQQ 080000Z AUTO 05005KT CAVOK 14/08 Q1026 NOSIG
Lilongwe (FWLI) 04.06.2013 21:00 UTC Zobrazit METAR
FWLI 042100Z 05003KT CAVOK 14/11 Q1023 NOSIG
Lima - Callao (SPIM) 07.06.2019 22:00 UTC Zobrazit METAR
SPIM 072200Z /////KT 9999 BKN035 18/15 Q1015 RMK PP000
Limnos (LGLM) 07.04.2020 23:50 UTC Zobrazit METAR
LGLM 072350Z 04026G40KT 9999 FEW025 09/01 Q1024
Linz (LOWL) 07.04.2020 20:50 UTC Zobrazit METAR
LOWL 072050Z 10005KT CAVOK 13/M01 Q1029 NOSIG
Lisbon (LPPT) 08.04.2020 00:00 UTC Zobrazit METAR
LPPT 080000Z 21004KT 9999 FEW004 BKN006 14/13 Q1023
Liverpool (EGGP) 07.04.2020 18:50 UTC Zobrazit METAR
EGGP 071850Z 28007KT 9999 FEW040 14/06 Q1026
Ljubljana (LJLJ) 08.04.2020 00:00 UTC Zobrazit METAR
LJLJ 080000Z VRB02KT CAVOK M01/M05 Q1031 NOSIG
Lome (DXXX) 08.04.2020 00:00 UTC Zobrazit METAR
DXXX 080000Z 22004KT 9999 FEW012 28/26 Q1012 NOSIG
London (EGLL) 06.04.2020 09:50 UTC Zobrazit METAR
EGLL 060950Z AUTO 26006KT 9999 SCT033 BKN041 12/10 Q1016 NOSIG
Luanda (FNLU) 08.04.2020 00:00 UTC Zobrazit METAR
FNLU 080000Z 20008KT 9999 FEW020 27/24 Q1010 NOSIG
Lulea (ESPA) 07.04.2020 23:50 UTC Zobrazit METAR
ESPA 072350Z AUTO 24007KT 9999 SCT150/// 04/M02 Q1014
Lusaka (FLLS) 13.01.2014 07:00 UTC Zobrazit METAR
FLLS 130700Z 36009KT CAVOK 25/20 Q1019
Luxembourg Airport (ELLX) 07.04.2020 23:50 UTC Zobrazit METAR
ELLX 072350Z 05009KT CAVOK 15/04 Q1027 NOSIG
Lyon (LFLL) 08.04.2020 00:00 UTC Zobrazit METAR
LFLL 080000Z AUTO 15005KT 080V180 CAVOK 13/02 Q1027 NOSIG
Reklama

Počasí na Váš email

Emaily jsou bez reklamy a bez spamu



Odhlásit newsletter

Reklama


Lunární kalendář

  • 15.04.
  • 23.04.
  • 30.04.
  • 07.05.





Vyhledat na internetu:
Reklama